Flight Track Log - Related Links

Times and Time Zones

All times are in EDT time to prevent confusion due to time zone crossing. See the AIP5038 flight status page for this flight to view local times or setup timezone preferences in your user account.

Time Position Orientation Groundspeed Altitude Reporting Facility
EDT Latitude Longitude Course Direction KTS MPH feet Rate Location/Type
Fri 03:39:21 AM 46.9228 -114.1106 105° East 124 143 4,300  Level Salt Lake Center
Fri 03:40:22 AM 46.9044 -114.1003 159° South 121 139 6,100 1,736 Climbing Salt Lake Center
Fri 03:41:22 AM 46.8961 -114.0528 104° East 123 142 7,800 1,636 Climbing Salt Lake Center
Fri 03:42:23 AM 46.8864 -114.0050 107° East 124 143 9,400 1,488 Climbing Salt Lake Center
Fri 03:43:00 AM 46.8246 -113.5649 101° East  Level Estimated
Fri 03:43:23 AM 46.8775 -113.9539 104° East 129 148 10,800  Level Salt Lake Center
Fri 03:44:00 AM 46.8083 -113.4777 105° East  Level FlightAware Approximate
Fri 03:44:23 AM 46.8664 -113.9014 107° East 135 155 12,200  Level Salt Lake Center
Fri 03:45:24 AM 46.8581 -113.8497 103° East 132 152 13,500 1,289 Climbing Salt Lake Center
Fri 03:46:24 AM 46.8481 -113.7939 105° East 132 152 14,800 694 Climbing Salt Lake Center
Fri 03:47:25 AM 46.8356 -113.7336 107° East 154 177 14,900 149 Climbing Salt Lake Center
Fri 03:48:25 AM 46.8200 -113.6592 107° East 188 216 15,100 50 Climbing Salt Lake Center
Fri 03:49:25 AM 46.8106 -113.5797 100° East 199 229 15,000 -99 Descending Salt Lake Center
Fri 03:50:26 AM 46.7972 -113.5031 104° East 197 227 14,900 -50 Descending Salt Lake Center
Fri 03:51:26 AM 46.7839 -113.4228 104° East 202 232 14,900  Level Salt Lake Center
Fri 03:52:27 AM 46.7700 -113.3469 105° East 196 226 14,900  Level Salt Lake Center
Fri 03:53:27 AM 46.7572 -113.2750 105° East 196 226 14,900 50 Level Salt Lake Center
Fri 03:54:27 AM 46.7419 -113.1997 106° East 194 223 15,000  Climbing Salt Lake Center
Fri 03:55:28 AM 46.7267 -113.1206 106° East 204 235 14,900 -50 Descending Salt Lake Center
Fri 03:56:28 AM 46.7144 -113.0436 103° East 197 227 14,900  Level Salt Lake Center
Fri 03:57:29 AM 46.6997 -112.9658 105° East 198 228 14,900 50 Level Salt Lake Center
Fri 03:58:29 AM 46.6847 -112.8850 105° East 194 223 15,000 100 Climbing Salt Lake Center
Fri 03:59:29 AM 46.6703 -112.8086 105° East 195 224 15,100 50 Climbing Salt Lake Center
Fri 04:00:30 AM 46.6561 -112.7311 105° East 196 226 15,100 -50 Level Salt Lake Center
Fri 04:01:30 AM 46.6417 -112.6536 105° East 197 227 15,000 -50 Descending Salt Lake Center
Fri 04:02:30 AM 46.6272 -112.5764 105° East 198 228 15,000  Level Salt Lake Center
Fri 04:03:31 AM 46.6136 -112.4997 104° East 197 227 15,000  Level Salt Lake Center
Fri 04:04:31 AM 46.5989 -112.4233 106° East 198 228 15,000  Level Salt Lake Center
Fri 04:05:31 AM 46.5850 -112.3450 104° East 200 230 15,000  Level Salt Lake Center
Fri 04:06:31 AM 46.5692 -112.2667 106° East 202 232 15,000  Level Salt Lake Center
Fri 04:07:32 AM 46.5525 -112.1892 107° East 202 232 15,000 50 Level Salt Lake Center
Fri 04:08:32 AM 46.5367 -112.1103 106° East 204 235 15,100  Climbing Salt Lake Center
Fri 04:09:32 AM 46.5211 -112.0328 106° East 202 232 15,000 -50 Descending Salt Lake Center
Fri 04:10:33 AM 46.5061 -111.9519 105° East 208 239 15,000  Level Salt Lake Center
Fri 04:11:33 AM 46.4922 -111.8719 104° East 205 236 15,000  Level Salt Lake Center
Fri 04:12:33 AM 46.4797 -111.7914 103° East 207 238 15,000  Level Salt Lake Center
Fri 04:13:33 AM 46.4656 -111.7117 104° East 206 237 15,000 50 Level Salt Lake Center
Fri 04:14:34 AM 46.4483 -111.6353 108° East 202 232 15,100 50 Climbing Salt Lake Center
Fri 04:15:34 AM 46.4308 -111.5467 106° East 204 235 15,100  Level Salt Lake Center
Fri 04:16:34 AM 46.4144 -111.4653 106° East 206 237 15,100 -50 Level Salt Lake Center
Fri 04:17:35 AM 46.3992 -111.3811 105° East 211 243 15,000  Descending Salt Lake Center
Fri 04:18:35 AM 46.3808 -111.2994 108° East 210 242 15,100 100 Climbing Salt Lake Center
Fri 04:19:35 AM 46.3675 -111.2147 103° East 212 244 15,200 -50 Climbing Salt Lake Center
Fri 04:20:35 AM 46.3508 -111.1392 108° East 210 242 15,000 -50 Descending Salt Lake Center
Fri 04:21:36 AM 46.3336 -111.0553 107° East 213 245 15,100 50 Climbing Salt Lake Center
Fri 04:22:36 AM 46.3156 -110.9728 108° East 212 244 15,100  Level Salt Lake Center
Fri 04:23:36 AM 46.2989 -110.8969 108° East 210 242 15,100 -50 Level Salt Lake Center
Fri 04:24:36 AM 46.2792 -110.8169 110° East 212 244 15,000 -50 Descending Salt Lake Center
Fri 04:25:37 AM 46.2639 -110.7331 105° East 215 247 15,000  Level Salt Lake Center
Fri 04:27:01 AM 46.2428 -110.6369 108° East 211 243 15,000 42 Level Salt Lake Center
Fri 04:28:01 AM 46.2242 -110.5400 105° East 208 239 15,100  Climbing Salt Lake Center
Fri 04:29:02 AM 46.2097 -110.4603 105° East 207 238 15,000 -50 Descending Salt Lake Center
Fri 04:30:02 AM 46.1997 -110.3728 99° East 212 244 15,000  Level Salt Lake Center
Fri 04:31:02 AM 46.1803 -110.2936 110° East 214 246 15,000  Level Salt Lake Center
Fri 04:32:03 AM 46.1578 -110.2200 114° Southeast 210 242 15,000  Level Salt Lake Center
Fri 04:33:03 AM 46.1389 -110.1408 109° East 209 241 15,000  Level Salt Lake Center
Fri 04:34:03 AM 46.1239 -110.0617 105° East 208 239 15,000  Level Salt Lake Center
Fri 04:35:03 AM 46.1072 -109.9819 107° East 206 237 15,000  Level Salt Lake Center
Fri 04:36:04 AM 46.0911 -109.9019 106° East 208 239 15,000  Level Salt Lake Center
Fri 04:37:04 AM 46.0731 -109.8114 106° East 208 239 15,000  Level Salt Lake Center
Fri 04:38:04 AM 46.0581 -109.7325 105° East 208 239 15,000 -200 Level Salt Lake Center
Fri 04:39:04 AM 46.0447 -109.6508 103° East 213 245 14,600 -397 Descending Salt Lake Center
Fri 04:40:05 AM 46.0308 -109.5569 102° East 222 255 14,200 -397 Descending Salt Lake Center
Fri 04:41:05 AM 46.0172 -109.4697 103° East 225 259 13,800 -600 Descending Salt Lake Center
Fri 04:42:05 AM 46.0056 -109.3808 101° East 229 264 13,000 -750 Descending Salt Lake Center
Fri 04:43:05 AM 45.9908 -109.2908 103° East 233 268 12,300 -793 Descending Salt Lake Center
Fri 04:44:06 AM 45.9769 -109.1992 102° East 236 272 11,400 -843 Descending Salt Lake Center
Fri 04:45:06 AM 45.9631 -109.1094 103° East 234 269 10,600 -850 Descending Salt Lake Center
Fri 04:46:06 AM 45.9436 -109.0228 108° East 232 267 9,700 -900 Descending Salt Lake Center
Fri 04:47:06 AM 45.9183 -108.9328 112° Southeast 228 262 8,800 -893 Descending Salt Lake Center
Fri 04:48:07 AM 45.8950 -108.8489 112° Southeast 228 262 7,900 -1,041 Descending Salt Lake Center
Fri 04:49:07 AM 45.8722 -108.7669 112° Southeast 226 260 6,700 -1,050 Descending Salt Lake Center
Fri 04:50:07 AM 45.8544 -108.7031 112° Southeast 184 212 5,800 -850 Descending Salt Lake Center
Fri 04:51:07 AM 45.8392 -108.6489 112° Southeast 157 181 5,000 -700 Descending Salt Lake Center
Fri 04:52:07 AM 45.8261 -108.6025 112° Southeast 134 154 4,400 -595 Descending Salt Lake Center
Fri 04:53:08 AM 45.8136 -108.5586 112° Southeast 116 133 3,800 -590 Descending Salt Lake Center
Fri 04:55:00 AM 45.8077 -108.5429 90° East  Level Estimated

Login

Don't have an account? Register now (free) for customized features, flight alerts, and more!